Terminal Aerodrome Forecast
Issued by NWS Duluth, MN

Home | Current Version | Previous Version | Text Only | Print | Product List | Glossary On
Versions: 1 2 3 4 5 6 7 8 9 10 11 12 13 14 15 16 17 18 19 20 21 22 23 24 25 26 27 28 29 30 31 32 33 34 35 36 37 38 39
000
FTUS43 KDLH 272300
TAFINL
TAF
KINL 272326Z 2800/2824 VRB04KT P6SM -RA SCT035 OVC070
      TEMPO 2801/2803 5SM -RA BKN015 OVC035
     FM280300 30006KT 6SM -RA BKN015 OVC025
     FM280500 30006KT 5SM -RA SCT006 OVC012
     FM280800 30008KT 5SM -RA OVC008
     FM282000 31010KT 4SM -SNRA OVC007=

USA.gov is the U.S. government's official web portal to all federal, state and local government web resources and services.